createdAt,value
2019-04-21T00:00:24.052Z,99.90
2019-04-21T00:03:07.425Z,99.90
2019-04-21T00:05:58.868Z,99.90
2019-04-21T00:08:56.466Z,99.90
2019-04-21T00:11:36.546Z,99.90
2019-04-21T00:14:01.959Z,99.90
2019-04-21T00:16:38.497Z,99.90
2019-04-21T00:19:34.931Z,99.90
2019-04-21T00:22:23.768Z,99.90
2019-04-21T00:25:04.367Z,99.90
2019-04-21T00:27:45.456Z,99.90
2019-04-21T00:30:30.279Z,99.90
2019-04-21T00:32:54.087Z,99.90
2019-04-21T00:35:25.798Z,99.90
2019-04-21T00:38:21.598Z,99.90
2019-04-21T00:41:01.737Z,99.90
2019-04-21T00:43:28.414Z,99.60
2019-04-21T00:46:04.820Z,99.50
2019-04-21T00:48:53.541Z,99.30
2019-04-21T00:51:42.036Z,99.30
2019-04-21T00:54:21.107Z,98.70
2019-04-21T00:56:56.417Z,98.60
2019-04-21T00:59:33.568Z,98.30
2019-04-21T01:02:05.853Z,97.70
2019-04-21T01:04:42.582Z,97.50
2019-04-21T01:07:20.354Z,97.50
2019-04-21T01:09:53.984Z,96.80
2019-04-21T01:12:37.952Z,96.90
2019-04-21T01:15:24.613Z,96.10
2019-04-21T01:17:53.177Z,96.00
2019-04-21T01:20:16.834Z,95.20
2019-04-21T01:22:49.084Z,95.20
2019-04-21T01:25:34.885Z,95.10
2019-04-21T01:28:23.204Z,94.70
2019-04-21T01:31:04.257Z,94.60
2019-04-21T01:33:45.054Z,94.80
2019-04-21T01:36:14.095Z,94.70
2019-04-21T01:38:58.983Z,94.40
2019-04-21T01:44:19.711Z,94.20
2019-04-21T01:46:48.064Z,94.00
2019-04-21T01:49:19.139Z,93.60
2019-04-21T01:52:20.534Z,93.40
2019-04-21T01:55:01.884Z,93.00
2019-04-21T01:57:54.305Z,92.80
2019-04-21T02:00:56.776Z,92.70
2019-04-21T02:06:19.517Z,92.00
2019-04-21T02:08:48.793Z,91.90
2019-04-21T02:11:35.413Z,91.60
2019-04-21T02:14:12.940Z,91.60
2019-04-21T02:16:49.716Z,91.30
2019-04-21T02:19:27.885Z,90.40
2019-04-21T02:22:01.455Z,90.00
2019-04-21T02:24:51.343Z,88.50
2019-04-21T02:27:23.726Z,88.50
2019-04-21T02:30:03.493Z,88.50
2019-04-21T02:32:47.901Z,87.60
2019-04-21T02:40:46.542Z,88.20
2019-04-21T02:48:51.382Z,88.40
2019-04-21T02:51:23.431Z,88.30
2019-04-21T02:54:24.434Z,87.50
2019-04-21T02:56:34.446Z,86.70
2019-04-21T02:59:17.113Z,85.50
2019-04-21T03:02:05.594Z,86.70
2019-04-21T03:07:21.543Z,85.90
2019-04-21T03:10:02.322Z,84.90
2019-04-21T03:12:42.184Z,84.50
2019-04-21T03:15:23.504Z,83.50
2019-04-21T03:18:04.478Z,84.00
2019-04-21T03:20:52.934Z,84.20
2019-04-21T03:23:23.785Z,83.10
2019-04-21T03:25:59.061Z,82.40
2019-04-21T03:34:29.237Z,81.10
2019-04-21T03:39:01.757Z,80.50
2019-04-21T03:41:50.633Z,79.80
2019-04-21T03:44:22.976Z,78.40
2019-04-21T03:49:47.581Z,77.80
2019-04-21T03:52:45.565Z,76.80
2019-04-21T03:58:17.813Z,77.40
2019-04-21T04:01:05.995Z,77.60
2019-04-21T04:06:38.864Z,78.80
2019-04-21T04:09:40.019Z,76.00
2019-04-21T04:14:42.482Z,76.10
2019-04-21T04:19:59.069Z,77.10
2019-04-21T04:22:45.582Z,75.60
2019-04-21T04:28:02.181Z,75.90
2019-04-21T04:30:34.041Z,75.70
2019-04-21T04:32:59.088Z,75.80
2019-04-21T04:35:52.897Z,76.10
2019-04-21T04:38:24.145Z,77.10
2019-04-21T04:41:14.644Z,76.20
2019-04-21T04:43:54.646Z,76.90
2019-04-21T04:46:29.365Z,76.50
2019-04-21T04:49:10.769Z,77.10
2019-04-21T04:51:58.639Z,77.00
2019-04-21T04:54:31.596Z,76.80
2019-04-21T04:59:42.441Z,77.00
2019-04-21T05:02:28.324Z,77.00
2019-04-21T05:05:14.117Z,76.80
2019-04-21T05:07:42.986Z,77.20
2019-04-21T05:10:09.693Z,77.60
2019-04-21T05:12:44.262Z,76.40
2019-04-21T05:15:19.282Z,75.70
2019-04-21T05:17:57.386Z,76.00
2019-04-21T05:20:50.615Z,76.50
2019-04-21T05:23:11.699Z,76.20
2019-04-21T05:25:41.626Z,75.60
2019-04-21T05:28:20.060Z,75.90
2019-04-21T05:31:25.003Z,75.80
2019-04-21T05:34:04.730Z,75.70
2019-04-21T05:37:11.043Z,76.40
2019-04-21T05:39:49.498Z,75.70
2019-04-21T05:42:24.970Z,75.60
2019-04-21T05:45:29.488Z,75.50
2019-04-21T05:50:49.557Z,76.70
2019-04-21T05:56:12.472Z,74.90
2019-04-21T05:58:43.752Z,75.00
2019-04-21T06:01:32.811Z,75.30
2019-04-21T06:04:05.497Z,74.50
2019-04-21T06:06:43.595Z,74.80
2019-04-21T06:09:19.190Z,74.80
2019-04-21T06:11:57.438Z,76.00
2019-04-21T06:14:39.364Z,74.40
2019-04-21T06:17:19.778Z,74.40
2019-04-21T06:22:23.894Z,73.20
2019-04-21T06:25:31.187Z,73.80
2019-04-21T06:27:45.884Z,73.00
2019-04-21T06:30:27.602Z,73.00
2019-04-21T06:33:11.738Z,71.90
2019-04-21T06:36:23.457Z,72.00
2019-04-21T06:41:34.367Z,72.40
2019-04-21T06:44:14.895Z,71.30
2019-04-21T06:46:59.060Z,72.50
2019-04-21T06:49:25.007Z,71.70
2019-04-21T06:52:21.653Z,71.30
2019-04-21T06:54:47.086Z,70.90
2019-04-21T06:57:29.557Z,69.40
2019-04-21T07:00:03.836Z,69.80
2019-04-21T07:03:02.953Z,70.50
2019-04-21T07:05:20.416Z,69.40
2019-04-21T07:08:14.793Z,69.70
2019-04-21T07:10:52.721Z,70.50
2019-04-21T07:13:11.880Z,69.40
2019-04-21T07:15:52.997Z,70.30
2019-04-21T07:18:37.282Z,69.70
2019-04-21T07:21:08.289Z,70.00
2019-04-21T07:23:53.894Z,69.80
2019-04-21T07:26:25.117Z,70.80
2019-04-21T07:31:48.193Z,69.80
2019-04-21T07:34:21.467Z,69.50
2019-04-21T07:39:34.055Z,72.70
2019-04-21T07:42:09.460Z,70.50
2019-04-21T07:44:46.031Z,68.60
2019-04-21T07:47:36.984Z,69.60
2019-04-21T07:50:14.720Z,69.00
2019-04-21T07:53:01.517Z,68.00
2019-04-21T07:58:14.965Z,69.90
2019-04-21T08:01:02.498Z,69.00
2019-04-21T08:06:30.514Z,70.50
2019-04-21T08:08:49.209Z,68.00
2019-04-21T08:11:21.047Z,70.40
2019-04-21T08:14:01.074Z,68.70
2019-04-21T08:16:40.285Z,67.10
2019-04-21T08:19:20.578Z,68.60
2019-04-21T08:22:05.235Z,68.50
2019-04-21T08:24:36.428Z,67.80
2019-04-21T08:27:17.746Z,68.20
2019-04-21T08:29:51.633Z,67.90
2019-04-21T08:32:42.347Z,67.50
2019-04-21T08:35:48.579Z,67.80
2019-04-21T08:37:46.092Z,66.90
2019-04-21T08:42:59.819Z,68.20
2019-04-21T08:45:41.581Z,68.50
2019-04-21T08:48:17.034Z,68.20
2019-04-21T08:51:05.979Z,67.10
2019-04-21T08:56:43.048Z,66.80
2019-04-21T08:59:31.398Z,66.60
2019-04-21T09:02:26.367Z,66.30
2019-04-21T09:04:59.127Z,66.80
2019-04-21T09:07:41.304Z,66.20
2019-04-21T09:10:14.389Z,65.80
2019-04-21T09:12:51.823Z,66.50
2019-04-21T09:15:31.152Z,65.70
2019-04-21T09:18:02.882Z,67.80
2019-04-21T09:20:52.666Z,66.40
2019-04-21T09:23:28.829Z,67.00
2019-04-21T09:26:05.211Z,66.90
2019-04-21T09:28:36.730Z,66.30
2019-04-21T09:31:04.626Z,65.40
2019-04-21T09:33:46.723Z,65.20
2019-04-21T09:36:21.283Z,65.40
2019-04-21T09:39:03.629Z,64.90
2019-04-21T09:41:36.393Z,65.40
2019-04-21T09:44:22.141Z,66.20
2019-04-21T09:46:56.354Z,66.00
2019-04-21T09:49:32.850Z,67.10
2019-04-21T09:52:13.763Z,68.20
2019-04-21T09:54:53.047Z,64.60
2019-04-21T09:57:36.656Z,65.50
2019-04-21T10:00:12.000Z,67.30
2019-04-21T10:02:50.272Z,65.60
2019-04-21T10:05:19.108Z,65.10
2019-04-21T10:07:55.707Z,69.00
2019-04-21T10:10:34.119Z,66.80
2019-04-21T10:13:10.713Z,64.70
2019-04-21T10:15:48.811Z,64.20
2019-04-21T10:18:25.366Z,65.00
2019-04-21T10:21:01.257Z,65.80
2019-04-21T10:23:39.395Z,65.10
2019-04-21T10:26:16.810Z,66.80
2019-04-21T10:28:53.494Z,68.80
2019-04-21T10:31:30.937Z,69.80
2019-04-21T10:34:07.412Z,71.30
2019-04-21T10:36:45.131Z,71.30
2019-04-21T10:39:21.752Z,72.40
2019-04-21T10:41:59.494Z,74.00
2019-04-21T10:44:36.765Z,74.90
2019-04-21T10:47:14.499Z,76.80
2019-04-21T10:49:51.095Z,79.90
2019-04-21T10:52:34.012Z,81.40
2019-04-21T10:55:27.365Z,78.00
2019-04-21T10:58:06.496Z,74.50
2019-04-21T11:00:44.263Z,81.20
2019-04-21T11:03:42.382Z,78.60
2019-04-21T11:06:21.166Z,82.50
2019-04-21T11:08:59.504Z,84.10
2019-04-21T11:11:35.425Z,85.90
2019-04-21T11:14:11.718Z,83.60
2019-04-21T11:16:49.746Z,83.10
2019-04-21T11:19:26.480Z,87.60
2019-04-21T11:22:02.973Z,84.30
2019-04-21T11:24:40.858Z,89.30
2019-04-21T11:27:19.090Z,87.30
2019-04-21T11:29:55.759Z,90.20
2019-04-21T11:32:34.796Z,90.10
2019-04-21T11:35:10.652Z,90.60
2019-04-21T11:37:46.574Z,90.00
2019-04-21T11:40:23.946Z,88.10
2019-04-21T11:43:01.949Z,84.90
2019-04-21T11:45:42.077Z,81.80
2019-04-21T11:48:26.206Z,81.30
2019-04-21T11:51:02.930Z,81.50
2019-04-21T11:53:41.024Z,82.70
2019-04-21T11:56:18.980Z,81.70
2019-04-21T11:58:55.029Z,85.00
2019-04-21T12:01:33.707Z,84.60
2019-04-21T12:04:11.636Z,85.70
2019-04-21T12:07:07.214Z,82.70
2019-04-21T12:09:44.126Z,84.50
2019-04-21T12:12:21.197Z,81.40
2019-04-21T12:14:57.782Z,81.30
2019-04-21T12:17:34.540Z,81.00
2019-04-21T12:20:12.437Z,80.80
2019-04-21T12:22:49.958Z,82.90
2019-04-21T12:25:29.177Z,82.80
2019-04-21T12:28:05.826Z,83.50
2019-04-21T12:30:43.026Z,82.00
2019-04-21T12:33:29.875Z,79.80
2019-04-21T12:36:06.256Z,82.00
2019-04-21T12:38:48.878Z,82.70
2019-04-21T12:41:22.589Z,80.80
2019-04-21T12:44:00.355Z,85.10
2019-04-21T12:46:38.066Z,81.60
2019-04-21T12:49:15.949Z,82.30
2019-04-21T12:51:53.898Z,82.10
2019-04-21T12:54:30.450Z,84.30
2019-04-21T12:57:07.797Z,86.60
2019-04-21T12:59:44.661Z,83.30
2019-04-21T13:02:21.966Z,85.50
2019-04-21T13:04:59.698Z,86.40
2019-04-21T13:07:37.335Z,88.30
2019-04-21T13:10:14.189Z,88.10
2019-04-21T13:12:52.176Z,89.10
2019-04-21T13:15:29.345Z,88.90
2019-04-21T13:18:05.854Z,88.70
2019-04-21T13:20:42.525Z,90.00
2019-04-21T13:23:18.944Z,91.40
2019-04-21T13:25:57.644Z,90.00
2019-04-21T13:28:34.586Z,92.30
2019-04-21T13:31:11.854Z,93.10
2019-04-21T13:33:48.318Z,91.90
2019-04-21T13:36:25.636Z,90.60
2019-04-21T13:39:55.599Z,91.70
2019-04-21T13:42:17.505Z,93.00
2019-04-21T13:44:48.823Z,92.00
2019-04-21T13:47:25.059Z,93.30
2019-04-21T13:50:03.687Z,92.70
2019-04-21T13:52:40.652Z,93.10
2019-04-21T13:55:17.206Z,94.10
2019-04-21T13:57:54.535Z,94.40
2019-04-21T14:00:31.775Z,94.50
2019-04-21T14:03:08.496Z,96.00
2019-04-21T14:05:46.380Z,96.40
2019-04-21T14:08:23.124Z,95.40
2019-04-21T14:10:59.812Z,96.70
2019-04-21T14:13:36.464Z,96.70
2019-04-21T14:16:14.045Z,95.20
2019-04-21T14:18:51.731Z,96.70
2019-04-21T14:21:29.398Z,95.80
2019-04-21T14:24:06.740Z,97.20
2019-04-21T14:26:44.469Z,97.20
2019-04-21T14:29:21.753Z,96.70
2019-04-21T14:32:00.045Z,97.10
2019-04-21T14:34:37.679Z,97.30
2019-04-21T14:37:16.937Z,96.90
2019-04-21T14:40:01.838Z,97.90
2019-04-21T14:42:31.951Z,95.10
2019-04-21T14:45:10.564Z,96.90
2019-04-21T14:48:04.993Z,97.40
2019-04-21T14:50:58.062Z,97.60
2019-04-21T14:53:43.663Z,97.20
2019-04-21T14:56:19.445Z,97.50
2019-04-21T14:58:57.612Z,97.90
2019-04-21T15:01:33.790Z,97.70
2019-04-21T15:04:10.067Z,97.50
2019-04-21T15:06:45.723Z,97.10
2019-04-21T15:09:22.897Z,96.90
2019-04-21T15:12:00.197Z,96.30
2019-04-21T15:14:36.335Z,96.00
2019-04-21T15:17:12.518Z,96.20
2019-04-21T15:19:58.708Z,96.20
2019-04-21T15:22:28.340Z,97.00
2019-04-21T15:25:05.857Z,96.80
2019-04-21T15:27:43.104Z,96.90
2019-04-21T15:30:20.743Z,97.00
2019-04-21T15:32:58.110Z,96.80
2019-04-21T15:35:35.185Z,96.30
2019-04-21T15:38:12.044Z,96.60
2019-04-21T15:40:55.424Z,96.50
2019-04-21T15:43:28.575Z,96.70
2019-04-21T15:46:06.633Z,96.70
2019-04-21T15:48:44.672Z,96.70
2019-04-21T15:51:21.974Z,96.60
2019-04-21T15:54:00.586Z,96.50
2019-04-21T15:56:44.775Z,96.50
2019-04-21T15:59:38.298Z,96.50
2019-04-21T16:02:32.879Z,96.30
2019-04-21T16:05:10.551Z,96.70
2019-04-21T16:07:47.927Z,96.80
2019-04-21T16:10:48.970Z,96.70
2019-04-21T16:13:21.620Z,96.90
2019-04-21T16:15:58.816Z,96.80
2019-04-21T16:18:36.284Z,96.90
2019-04-21T16:21:13.810Z,97.20
2019-04-21T16:23:51.285Z,97.30
2019-04-21T16:26:28.814Z,97.10
2019-04-21T16:29:07.075Z,97.30
2019-04-21T16:31:44.533Z,97.40
2019-04-21T16:34:21.940Z,97.60
2019-04-21T16:36:59.471Z,98.10
2019-04-21T16:39:37.647Z,99.40
2019-04-21T16:42:16.110Z,98.70
2019-04-21T16:44:52.793Z,98.50
2019-04-21T16:47:30.313Z,99.40
2019-04-21T16:50:07.665Z,99.20
2019-04-21T16:52:50.546Z,99.60
2019-04-21T16:55:39.235Z,99.90
2019-04-21T16:58:32.645Z,99.70
2019-04-21T17:01:16.237Z,99.90
2019-04-21T17:03:50.235Z,99.40
2019-04-21T17:06:27.026Z,99.70
2019-04-21T17:09:05.029Z,99.90
2019-04-21T17:11:44.027Z,99.90
2019-04-21T17:14:35.497Z,99.90
2019-04-21T17:17:20.598Z,99.90
2019-04-21T17:19:43.575Z,99.90
2019-04-21T17:22:15.862Z,99.90
2019-04-21T17:24:53.270Z,99.90
2019-04-21T17:27:31.094Z,99.90
2019-04-21T17:30:08.511Z,99.90
2019-04-21T17:32:49.501Z,99.90
2019-04-21T17:35:22.929Z,99.90
2019-04-21T17:38:01.551Z,99.90
2019-04-21T17:40:38.133Z,99.90
2019-04-21T17:43:17.865Z,99.90
2019-04-21T17:45:53.203Z,99.90
2019-04-21T17:48:31.113Z,99.90
2019-04-21T17:51:26.042Z,99.90
2019-04-21T17:54:17.510Z,99.90
2019-04-21T17:57:11.442Z,99.90
2019-04-21T18:00:00.116Z,99.90
2019-04-21T18:02:27.847Z,99.90
2019-04-21T18:05:05.448Z,99.90
2019-04-21T18:07:45.398Z,99.90
2019-04-21T18:10:14.241Z,99.90
2019-04-21T18:12:45.943Z,99.90
2019-04-21T18:15:32.494Z,99.90
2019-04-21T18:17:52.468Z,99.90
2019-04-21T18:20:32.247Z,99.90
2019-04-21T18:23:39.437Z,99.90
2019-04-21T18:26:11.464Z,99.90
2019-04-21T18:28:42.203Z,99.90
2019-04-21T18:31:18.538Z,99.90
2019-04-21T18:34:13.890Z,99.90
2019-04-21T18:36:55.514Z,99.90
2019-04-21T18:39:55.820Z,99.90
2019-04-21T18:42:47.880Z,99.90
2019-04-21T18:45:48.012Z,99.90
2019-04-21T18:48:27.441Z,99.90
2019-04-21T18:51:04.676Z,99.90
2019-04-21T18:54:19.324Z,99.90
2019-04-21T18:56:31.689Z,99.90
2019-04-21T18:59:08.857Z,99.90
2019-04-21T19:01:51.695Z,99.90
2019-04-21T19:04:28.747Z,99.90
2019-04-21T19:07:16.897Z,99.90
2019-04-21T19:10:14.365Z,99.90
2019-04-21T19:13:08.047Z,99.90
2019-04-21T19:15:12.280Z,99.90
2019-04-21T19:18:27.703Z,99.90
2019-04-21T19:20:29.495Z,99.90
2019-04-21T19:23:08.380Z,99.90
2019-04-21T19:25:47.348Z,99.90
2019-04-21T19:28:26.971Z,99.90
2019-04-21T19:33:33.585Z,99.90
2019-04-21T19:36:01.419Z,99.90
2019-04-21T19:38:49.408Z,99.90
2019-04-21T19:41:32.833Z,99.90
2019-04-21T19:44:12.102Z,99.90
2019-04-21T19:46:53.291Z,99.90
2019-04-21T19:49:35.041Z,99.90
2019-04-21T19:51:57.511Z,99.90
2019-04-21T19:54:33.976Z,99.90
2019-04-21T19:57:04.899Z,99.90
2019-04-21T19:59:47.683Z,99.90
2019-04-21T20:02:20.435Z,99.90
2019-04-21T20:05:02.139Z,99.90
2019-04-21T20:07:49.465Z,99.90
2019-04-21T20:10:33.651Z,99.90
2019-04-21T20:13:14.511Z,99.90
2019-04-21T20:15:52.327Z,99.90
2019-04-21T20:18:21.047Z,99.90
2019-04-21T20:20:46.012Z,99.90
2019-04-21T20:23:28.647Z,99.90
2019-04-21T20:26:04.608Z,99.90
2019-04-21T20:28:49.286Z,99.90
2019-04-21T20:31:36.477Z,99.90
2019-04-21T20:34:21.166Z,99.90
2019-04-21T20:36:56.738Z,99.90
2019-04-21T20:39:18.811Z,99.90
2019-04-21T20:42:04.128Z,99.90
2019-04-21T20:44:54.528Z,99.90
2019-04-21T20:47:20.012Z,99.90
2019-04-21T20:49:59.712Z,99.90
2019-04-21T20:52:44.777Z,99.90
2019-04-21T20:55:13.236Z,99.90
2019-04-21T20:57:51.512Z,99.90
2019-04-21T21:01:16.793Z,99.90
2019-04-21T21:03:28.878Z,99.90
2019-04-21T21:06:02.264Z,99.90
2019-04-21T21:08:44.895Z,99.90
2019-04-21T21:11:23.138Z,99.90
2019-04-21T21:14:01.923Z,99.90
2019-04-21T21:16:46.317Z,99.90
2019-04-21T21:19:21.016Z,99.90
2019-04-21T21:21:49.964Z,99.90
2019-04-21T21:24:39.369Z,99.90
2019-04-21T21:27:10.435Z,99.90
2019-04-21T21:29:50.304Z,99.90
2019-04-21T21:32:27.425Z,99.90
2019-04-21T21:35:07.919Z,99.90
2019-04-21T21:37:49.550Z,99.90
2019-04-21T21:40:26.870Z,99.90
2019-04-21T21:42:45.691Z,99.90
2019-04-21T21:45:26.948Z,99.90
2019-04-21T21:48:18.676Z,99.90
2019-04-21T21:50:45.599Z,99.90
2019-04-21T21:53:21.533Z,99.90
2019-04-21T21:55:54.272Z,99.90
2019-04-21T21:58:36.445Z,99.90
2019-04-21T22:01:13.192Z,99.90
2019-04-21T22:04:01.680Z,99.90
2019-04-21T22:06:41.044Z,99.90
2019-04-21T22:09:06.244Z,99.90
2019-04-21T22:11:44.264Z,99.90
2019-04-21T22:14:25.885Z,99.90
2019-04-21T22:17:16.455Z,99.90
2019-04-21T22:20:03.062Z,99.90
2019-04-21T22:22:28.576Z,99.90
2019-04-21T22:25:04.798Z,99.90
2019-04-21T22:27:31.338Z,99.90
2019-04-21T22:30:13.068Z,99.90
2019-04-21T22:32:52.793Z,99.90
2019-04-21T22:35:35.953Z,99.90
2019-04-21T22:38:21.150Z,99.90
2019-04-21T22:40:55.486Z,99.90
2019-04-21T22:43:27.241Z,99.90
2019-04-21T22:45:56.580Z,99.90
2019-04-21T22:48:34.734Z,99.90
2019-04-21T22:51:20.607Z,99.90
2019-04-21T22:53:51.894Z,99.90
2019-04-21T22:56:31.636Z,99.90
2019-04-21T22:59:10.995Z,99.90
2019-04-21T23:01:49.908Z,99.90
2019-04-21T23:04:25.441Z,99.90
2019-04-21T23:07:05.538Z,99.90
2019-04-21T23:09:40.357Z,99.90
2019-04-21T23:12:20.446Z,99.90
2019-04-21T23:15:01.811Z,99.90
2019-04-21T23:17:56.725Z,99.90
2019-04-21T23:20:32.522Z,99.90
2019-04-21T23:23:11.789Z,99.90
2019-04-21T23:25:42.544Z,99.90
2019-04-21T23:28:16.110Z,99.90
2019-04-21T23:31:00.626Z,99.90
2019-04-21T23:33:23.386Z,99.90
2019-04-21T23:36:08.495Z,99.90
2019-04-21T23:38:43.966Z,99.90
2019-04-21T23:41:15.348Z,99.90
2019-04-21T23:44:00.412Z,99.90
2019-04-21T23:46:35.136Z,99.90
2019-04-21T23:49:21.648Z,99.90
2019-04-21T23:51:55.607Z,99.90
2019-04-21T23:54:27.250Z,99.90
2019-04-21T23:57:14.199Z,99.90
2019-04-21T23:59:46.879Z,99.90
